CheckWX is a tool to help pilots better visualize weather data.  It is not intended as a substitute for an official pre-flight weather briefing.

09:52:51 UTC

KROG METAR
Rogers Executive - Carter Field Airport
Rogers, Arkansas, USA
Current

55 mins ago

KROG 250858Z AUTO 14012KT 10SM OVC007 21/20 A2997 RMK AO2 CIG 005V009 SLP134 T02110200 58015
Observed
Aug-25 @ 08:58 UTC
Wind
  • 140° at 12 KTS
Visibility
10 SM
Flight Rules
IFR
Cloud Levels
  • Overcast at 700' AGL
Temperature
21°C / 70°F
Dewpoint
20°C / 68°F
Humidity
94%
Altimeter
29.97" Hg
Pressure
1014.92 hPa
Previous

1 hour ago

KROG 250852Z AUTO 13011KT 10SM OVC007 21/20 A2997 RMK AO2 CIG 005V009
Observed
Aug-25 @ 08:52 UTC
Wind
  • 130° at 11 KTS
Visibility
10 SM
Flight Rules
IFR
Cloud Levels
  • Overcast at 700' AGL
Temperature
21°C / 70°F
Dewpoint
20°C / 68°F
Humidity
94%
Altimeter
29.97" Hg
Pressure
1014.92 hPa
Previous

2 hours ago

KROG 250758Z AUTO 12012G15KT 10SM OVC005 21/20 A2998 RMK AO2 SLP139 T02110200
Observed
Aug-25 @ 07:58 UTC
Wind
  • 120° at 12 KTS
  • Gusting to 15 KTS
Visibility
10 SM
Flight Rules
IFR
Cloud Levels
  • Overcast at 500' AGL
Temperature
21°C / 70°F
Dewpoint
20°C / 68°F
Humidity
94%
Altimeter
29.98" Hg
Pressure
1015.22 hPa